sensor_id;sensor_type;location;lat;lon;timestamp;temperature;humidity
19363;DHT22;9817;50.80926400;5.16316200;2022-07-29T00:02:11;19.10;99.90
19363;DHT22;9817;50.80926400;5.16316200;2022-07-29T00:04:37;19.10;99.90
19363;DHT22;9817;50.80926400;5.16316200;2022-07-29T00:07:04;19.10;99.90
19363;DHT22;9817;50.80926400;5.16316200;2022-07-29T00:09:30;19.10;99.90
19363;DHT22;9817;50.80926400;5.16316200;2022-07-29T00:11:59;19.30;99.90
19363;DHT22;9817;50.80926400;5.16316200;2022-07-29T00:14:25;19.40;99.90
19363;DHT22;9817;50.80926400;5.16316200;2022-07-29T00:16:51;19.50;99.90
19363;DHT22;9817;50.80926400;5.16316200;2022-07-29T00:19:16;19.50;99.90
19363;DHT22;9817;50.80926400;5.16316200;2022-07-29T00:21:42;19.50;99.90
19363;DHT22;9817;50.80926400;5.16316200;2022-07-29T00:24:08;19.50;99.90
19363;DHT22;9817;50.80926400;5.16316200;2022-07-29T00:26:33;19.40;99.90
19363;DHT22;9817;50.80926400;5.16316200;2022-07-29T00:29:00;19.40;99.90
19363;DHT22;9817;50.80926400;5.16316200;2022-07-29T00:31:26;19.40;99.90
19363;DHT22;9817;50.80926400;5.16316200;2022-07-29T00:33:52;19.40;99.90
19363;DHT22;9817;50.80926400;5.16316200;2022-07-29T00:36:18;19.30;99.90
19363;DHT22;9817;50.80926400;5.16316200;2022-07-29T00:38:47;19.40;99.90
19363;DHT22;9817;50.80926400;5.16316200;2022-07-29T00:41:12;19.40;99.90
19363;DHT22;9817;50.80926400;5.16316200;2022-07-29T00:43:38;19.50;99.90
19363;DHT22;9817;50.80926400;5.16316200;2022-07-29T00:46:04;19.60;99.90
19363;DHT22;9817;50.80926400;5.16316200;2022-07-29T00:48:30;19.60;99.90
19363;DHT22;9817;50.80926400;5.16316200;2022-07-29T00:51:00;19.40;99.90
19363;DHT22;9817;50.80926400;5.16316200;2022-07-29T00:53:27;19.30;99.90
19363;DHT22;9817;50.80926400;5.16316200;2022-07-29T00:55:56;19.20;99.90
19363;DHT22;9817;50.80926400;5.16316200;2022-07-29T00:58:22;19.00;99.90
19363;DHT22;9817;50.80926400;5.16316200;2022-07-29T01:00:49;19.00;99.90
19363;DHT22;9817;50.80926400;5.16316200;2022-07-29T01:03:14;19.00;99.90
19363;DHT22;9817;50.80926400;5.16316200;2022-07-29T01:05:42;19.00;99.90
19363;DHT22;9817;50.80926400;5.16316200;2022-07-29T01:08:08;19.00;99.90
19363;DHT22;9817;50.80926400;5.16316200;2022-07-29T01:10:38;19.20;99.90
19363;DHT22;9817;50.80926400;5.16316200;2022-07-29T01:13:04;19.20;99.90
19363;DHT22;9817;50.80926400;5.16316200;2022-07-29T01:15:30;19.20;99.90
19363;DHT22;9817;50.80926400;5.16316200;2022-07-29T01:18:32;19.30;99.90
19363;DHT22;9817;50.80926400;5.16316200;2022-07-29T01:21:21;19.20;99.90
19363;DHT22;9817;50.80926400;5.16316200;2022-07-29T01:23:57;19.20;99.90
19363;DHT22;9817;50.80926400;5.16316200;2022-07-29T01:29:29;19.30;99.90
19363;DHT22;9817;50.80926400;5.16316200;2022-07-29T01:32:11;19.10;99.90
19363;DHT22;9817;50.80926400;5.16316200;2022-07-29T01:35:06;19.00;99.90
19363;DHT22;9817;50.80926400;5.16316200;2022-07-29T01:37:54;19.00;99.90
19363;DHT22;9817;50.80926400;5.16316200;2022-07-29T01:40:45;18.90;99.90
19363;DHT22;9817;50.80926400;5.16316200;2022-07-29T01:43:16;18.90;99.90
19363;DHT22;9817;50.80926400;5.16316200;2022-07-29T01:45:55;19.00;99.90
19363;DHT22;9817;50.80926400;5.16316200;2022-07-29T01:48:27;19.10;99.90
19363;DHT22;9817;50.80926400;5.16316200;2022-07-29T01:53:59;19.20;99.90
19363;DHT22;9817;50.80926400;5.16316200;2022-07-29T01:56:28;19.20;99.90
19363;DHT22;9817;50.80926400;5.16316200;2022-07-29T01:58:57;19.20;99.90
19363;DHT22;9817;50.80926400;5.16316200;2022-07-29T02:01:25;19.20;99.90
19363;DHT22;9817;50.80926400;5.16316200;2022-07-29T02:03:53;19.20;99.90
19363;DHT22;9817;50.80926400;5.16316200;2022-07-29T02:06:22;19.30;99.90
19363;DHT22;9817;50.80926400;5.16316200;2022-07-29T02:08:50;19.30;99.90
19363;DHT22;9817;50.80926400;5.16316200;2022-07-29T02:11:17;19.30;99.90
19363;DHT22;9817;50.80926400;5.16316200;2022-07-29T02:13:43;19.30;99.90
19363;DHT22;9817;50.80926400;5.16316200;2022-07-29T02:16:09;19.20;99.90
19363;DHT22;9817;50.80926400;5.16316200;2022-07-29T02:18:37;19.20;99.90
19363;DHT22;9817;50.80926400;5.16316200;2022-07-29T02:21:03;19.20;99.90
19363;DHT22;9817;50.80926400;5.16316200;2022-07-29T02:23:31;19.20;99.90
19363;DHT22;9817;50.80926400;5.16316200;2022-07-29T02:25:58;19.20;99.90
19363;DHT22;9817;50.80926400;5.16316200;2022-07-29T02:28:27;19.20;99.90
19363;DHT22;9817;50.80926400;5.16316200;2022-07-29T02:30:58;19.20;99.90
19363;DHT22;9817;50.80926400;5.16316200;2022-07-29T02:33:25;19.20;99.90
19363;DHT22;9817;50.80926400;5.16316200;2022-07-29T02:35:52;19.20;99.90
19363;DHT22;9817;50.80926400;5.16316200;2022-07-29T02:38:18;19.10;99.90
19363;DHT22;9817;50.80926400;5.16316200;2022-07-29T02:41:23;19.10;99.90
19363;DHT22;9817;50.80926400;5.16316200;2022-07-29T02:43:56;19.10;99.90
19363;DHT22;9817;50.80926400;5.16316200;2022-07-29T02:46:29;19.00;99.90
19363;DHT22;9817;50.80926400;5.16316200;2022-07-29T02:52:00;19.00;99.90
19363;DHT22;9817;50.80926400;5.16316200;2022-07-29T02:54:58;19.00;99.90
19363;DHT22;9817;50.80926400;5.16316200;2022-07-29T02:57:35;19.00;99.90
19363;DHT22;9817;50.80926400;5.16316200;2022-07-29T03:00:07;19.00;99.90
19363;DHT22;9817;50.80926400;5.16316200;2022-07-29T03:02:37;18.90;99.90
19363;DHT22;9817;50.80926400;5.16316200;2022-07-29T03:05:05;18.90;99.90
19363;DHT22;9817;50.80926400;5.16316200;2022-07-29T03:07:33;18.90;99.90
19363;DHT22;9817;50.80926400;5.16316200;2022-07-29T03:09:59;18.90;99.90
19363;DHT22;9817;50.80926400;5.16316200;2022-07-29T03:12:26;18.90;99.90
19363;DHT22;9817;50.80926400;5.16316200;2022-07-29T03:14:52;18.90;99.90
19363;DHT22;9817;50.80926400;5.16316200;2022-07-29T03:17:18;19.00;99.90
19363;DHT22;9817;50.80926400;5.16316200;2022-07-29T03:19:45;19.00;99.90
19363;DHT22;9817;50.80926400;5.16316200;2022-07-29T03:22:11;18.90;99.90
19363;DHT22;9817;50.80926400;5.16316200;2022-07-29T03:24:37;19.00;99.90
19363;DHT22;9817;50.80926400;5.16316200;2022-07-29T03:27:03;19.00;99.90
19363;DHT22;9817;50.80926400;5.16316200;2022-07-29T03:29:29;19.00;99.90
19363;DHT22;9817;50.80926400;5.16316200;2022-07-29T03:31:55;19.00;99.90
19363;DHT22;9817;50.80926400;5.16316200;2022-07-29T03:34:21;19.00;99.90
19363;DHT22;9817;50.80926400;5.16316200;2022-07-29T03:36:47;19.00;99.90
19363;DHT22;9817;50.80926400;5.16316200;2022-07-29T03:39:17;19.00;99.90
19363;DHT22;9817;50.80926400;5.16316200;2022-07-29T03:41:45;19.00;99.90
19363;DHT22;9817;50.80926400;5.16316200;2022-07-29T03:44:13;18.90;99.90
19363;DHT22;9817;50.80926400;5.16316200;2022-07-29T03:46:42;19.00;99.90
19363;DHT22;9817;50.80926400;5.16316200;2022-07-29T03:49:09;19.00;99.90
19363;DHT22;9817;50.80926400;5.16316200;2022-07-29T03:51:36;18.90;99.90
19363;DHT22;9817;50.80926400;5.16316200;2022-07-29T03:54:03;18.90;99.90
19363;DHT22;9817;50.80926400;5.16316200;2022-07-29T03:56:29;18.90;99.90
19363;DHT22;9817;50.80926400;5.16316200;2022-07-29T03:58:58;18.90;99.90
19363;DHT22;9817;50.80926400;5.16316200;2022-07-29T04:01:24;18.90;99.90
19363;DHT22;9817;50.80926400;5.16316200;2022-07-29T04:03:51;18.90;99.90
19363;DHT22;9817;50.80926400;5.16316200;2022-07-29T04:06:16;18.90;99.90
19363;DHT22;9817;50.80926400;5.16316200;2022-07-29T04:08:42;18.90;99.90
19363;DHT22;9817;50.80926400;5.16316200;2022-07-29T04:11:07;19.00;99.90
19363;DHT22;9817;50.80926400;5.16316200;2022-07-29T04:13:33;18.90;99.90
19363;DHT22;9817;50.80926400;5.16316200;2022-07-29T04:15:59;18.90;99.90
19363;DHT22;9817;50.80926400;5.16316200;2022-07-29T04:18:25;18.90;99.90
19363;DHT22;9817;50.80926400;5.16316200;2022-07-29T04:20:50;18.90;99.90
19363;DHT22;9817;50.80926400;5.16316200;2022-07-29T04:23:16;18.90;99.90
19363;DHT22;9817;50.80926400;5.16316200;2022-07-29T04:25:42;18.90;99.90
19363;DHT22;9817;50.80926400;5.16316200;2022-07-29T04:28:08;18.80;99.90
19363;DHT22;9817;50.80926400;5.16316200;2022-07-29T04:30:36;18.60;99.90
19363;DHT22;9817;50.80926400;5.16316200;2022-07-29T04:33:04;18.60;99.90
19363;DHT22;9817;50.80926400;5.16316200;2022-07-29T04:35:31;18.60;99.90
19363;DHT22;9817;50.80926400;5.16316200;2022-07-29T04:37:58;18.50;99.90
19363;DHT22;9817;50.80926400;5.16316200;2022-07-29T04:40:24;18.50;99.90
19363;DHT22;9817;50.80926400;5.16316200;2022-07-29T04:42:49;18.40;99.90
19363;DHT22;9817;50.80926400;5.16316200;2022-07-29T04:45:15;18.30;99.90
19363;DHT22;9817;50.80926400;5.16316200;2022-07-29T04:47:41;18.30;99.90
19363;DHT22;9817;50.80926400;5.16316200;2022-07-29T04:50:07;18.30;99.90
19363;DHT22;9817;50.80926400;5.16316200;2022-07-29T04:52:33;18.30;99.90
19363;DHT22;9817;50.80926400;5.16316200;2022-07-29T04:55:00;18.20;99.90
19363;DHT22;9817;50.80926400;5.16316200;2022-07-29T04:57:26;18.10;99.90
19363;DHT22;9817;50.80926400;5.16316200;2022-07-29T04:59:52;18.10;99.90
19363;DHT22;9817;50.80926400;5.16316200;2022-07-29T05:02:17;18.20;99.90
19363;DHT22;9817;50.80926400;5.16316200;2022-07-29T05:04:43;18.10;99.90
19363;DHT22;9817;50.80926400;5.16316200;2022-07-29T05:07:08;18.10;99.90
19363;DHT22;9817;50.80926400;5.16316200;2022-07-29T05:09:34;18.20;99.90
19363;DHT22;9817;50.80926400;5.16316200;2022-07-29T05:11:59;18.20;99.90
19363;DHT22;9817;50.80926400;5.16316200;2022-07-29T05:14:25;18.20;99.90
19363;DHT22;9817;50.80926400;5.16316200;2022-07-29T05:16:51;18.30;99.90
19363;DHT22;9817;50.80926400;5.16316200;2022-07-29T05:19:17;18.30;99.90
19363;DHT22;9817;50.80926400;5.16316200;2022-07-29T05:21:44;18.30;99.90
19363;DHT22;9817;50.80926400;5.16316200;2022-07-29T05:24:10;18.40;99.90
19363;DHT22;9817;50.80926400;5.16316200;2022-07-29T05:26:35;18.50;99.90
19363;DHT22;9817;50.80926400;5.16316200;2022-07-29T05:29:01;18.50;99.90
19363;DHT22;9817;50.80926400;5.16316200;2022-07-29T05:31:27;18.60;99.90
19363;DHT22;9817;50.80926400;5.16316200;2022-07-29T05:33:52;18.50;99.90
19363;DHT22;9817;50.80926400;5.16316200;2022-07-29T05:36:18;18.70;99.90
19363;DHT22;9817;50.80926400;5.16316200;2022-07-29T05:38:44;18.80;99.90
19363;DHT22;9817;50.80926400;5.16316200;2022-07-29T05:41:09;18.80;99.90
19363;DHT22;9817;50.80926400;5.16316200;2022-07-29T05:43:35;18.80;99.90
19363;DHT22;9817;50.80926400;5.16316200;2022-07-29T05:46:00;18.80;99.90
19363;DHT22;9817;50.80926400;5.16316200;2022-07-29T05:48:26;18.80;99.90
19363;DHT22;9817;50.80926400;5.16316200;2022-07-29T05:50:52;18.90;99.90
19363;DHT22;9817;50.80926400;5.16316200;2022-07-29T05:53:18;18.90;99.90
19363;DHT22;9817;50.80926400;5.16316200;2022-07-29T05:55:43;18.90;99.90
19363;DHT22;9817;50.80926400;5.16316200;2022-07-29T05:58:09;18.90;99.90
19363;DHT22;9817;50.80926400;5.16316200;2022-07-29T06:00:34;19.00;99.90
19363;DHT22;9817;50.80926400;5.16316200;2022-07-29T06:03:00;19.10;99.90
19363;DHT22;9817;50.80926400;5.16316200;2022-07-29T06:05:26;19.10;99.90
19363;DHT22;9817;50.80926400;5.16316200;2022-07-29T06:07:52;19.10;99.90
19363;DHT22;9817;50.80926400;5.16316200;2022-07-29T06:10:18;19.10;99.90
19363;DHT22;9817;50.80926400;5.16316200;2022-07-29T06:12:44;19.10;99.90
19363;DHT22;9817;50.80926400;5.16316200;2022-07-29T06:15:10;19.30;99.90
19363;DHT22;9817;50.80926400;5.16316200;2022-07-29T06:17:35;19.30;99.90
19363;DHT22;9817;50.80926400;5.16316200;2022-07-29T06:20:02;19.40;99.90
19363;DHT22;9817;50.80926400;5.16316200;2022-07-29T06:22:28;19.50;99.90
19363;DHT22;9817;50.80926400;5.16316200;2022-07-29T06:24:54;19.50;99.90
19363;DHT22;9817;50.80926400;5.16316200;2022-07-29T06:27:19;19.60;99.90
19363;DHT22;9817;50.80926400;5.16316200;2022-07-29T06:29:45;19.70;99.90
19363;DHT22;9817;50.80926400;5.16316200;2022-07-29T06:32:10;19.70;99.90
19363;DHT22;9817;50.80926400;5.16316200;2022-07-29T06:34:36;19.70;99.90
19363;DHT22;9817;50.80926400;5.16316200;2022-07-29T06:37:08;19.80;99.90
19363;DHT22;9817;50.80926400;5.16316200;2022-07-29T06:39:37;19.90;99.90
19363;DHT22;9817;50.80926400;5.16316200;2022-07-29T06:42:06;19.90;99.90
19363;DHT22;9817;50.80926400;5.16316200;2022-07-29T06:44:32;19.90;99.90
19363;DHT22;9817;50.80926400;5.16316200;2022-07-29T06:47:01;20.00;99.90
19363;DHT22;9817;50.80926400;5.16316200;2022-07-29T06:49:27;20.00;99.90
19363;DHT22;9817;50.80926400;5.16316200;2022-07-29T06:51:54;20.10;99.90
19363;DHT22;9817;50.80926400;5.16316200;2022-07-29T06:54:20;20.20;99.90
19363;DHT22;9817;50.80926400;5.16316200;2022-07-29T06:56:46;20.30;99.90
19363;DHT22;9817;50.80926400;5.16316200;2022-07-29T06:59:13;20.40;99.90
19363;DHT22;9817;50.80926400;5.16316200;2022-07-29T07:01:42;20.40;99.90
19363;DHT22;9817;50.80926400;5.16316200;2022-07-29T07:04:08;20.40;99.90
19363;DHT22;9817;50.80926400;5.16316200;2022-07-29T07:06:34;20.50;99.90
19363;DHT22;9817;50.80926400;5.16316200;2022-07-29T07:09:00;20.60;99.90
19363;DHT22;9817;50.80926400;5.16316200;2022-07-29T07:11:26;20.60;99.90
19363;DHT22;9817;50.80926400;5.16316200;2022-07-29T07:13:52;20.70;99.90
19363;DHT22;9817;50.80926400;5.16316200;2022-07-29T07:16:17;20.70;99.90
19363;DHT22;9817;50.80926400;5.16316200;2022-07-29T07:18:43;20.70;99.90
19363;DHT22;9817;50.80926400;5.16316200;2022-07-29T07:21:10;20.70;99.90
19363;DHT22;9817;50.80926400;5.16316200;2022-07-29T07:23:36;20.80;99.90
19363;DHT22;9817;50.80926400;5.16316200;2022-07-29T07:26:02;20.90;99.90
19363;DHT22;9817;50.80926400;5.16316200;2022-07-29T07:28:28;20.90;99.90
19363;DHT22;9817;50.80926400;5.16316200;2022-07-29T07:30:54;20.90;99.90
19363;DHT22;9817;50.80926400;5.16316200;2022-07-29T07:33:20;21.00;99.90
19363;DHT22;9817;50.80926400;5.16316200;2022-07-29T07:35:46;21.10;99.90
19363;DHT22;9817;50.80926400;5.16316200;2022-07-29T07:38:12;21.20;99.90
19363;DHT22;9817;50.80926400;5.16316200;2022-07-29T07:40:38;21.30;99.90
19363;DHT22;9817;50.80926400;5.16316200;2022-07-29T07:43:03;21.30;99.90
19363;DHT22;9817;50.80926400;5.16316200;2022-07-29T07:45:29;21.30;99.90
19363;DHT22;9817;50.80926400;5.16316200;2022-07-29T07:47:57;22.00;99.90
19363;DHT22;9817;50.80926400;5.16316200;2022-07-29T07:50:23;24.10;99.90
19363;DHT22;9817;50.80926400;5.16316200;2022-07-29T07:52:51;27.20;99.90
19363;DHT22;9817;50.80926400;5.16316200;2022-07-29T07:55:17;30.40;99.90
19363;DHT22;9817;50.80926400;5.16316200;2022-07-29T07:57:44;32.80;95.80
19363;DHT22;9817;50.80926400;5.16316200;2022-07-29T08:00:10;34.70;91.70
19363;DHT22;9817;50.80926400;5.16316200;2022-07-29T08:02:37;36.20;85.60
19363;DHT22;9817;50.80926400;5.16316200;2022-07-29T08:05:03;37.60;77.30
19363;DHT22;9817;50.80926400;5.16316200;2022-07-29T08:07:29;38.90;72.50
19363;DHT22;9817;50.80926400;5.16316200;2022-07-29T08:09:54;39.90;69.30
19363;DHT22;9817;50.80926400;5.16316200;2022-07-29T08:12:20;40.80;65.50
19363;DHT22;9817;50.80926400;5.16316200;2022-07-29T08:14:46;41.50;60.90
19363;DHT22;9817;50.80926400;5.16316200;2022-07-29T08:17:11;42.20;57.60
19363;DHT22;9817;50.80926400;5.16316200;2022-07-29T08:19:37;42.60;55.90
19363;DHT22;9817;50.80926400;5.16316200;2022-07-29T08:22:03;43.20;55.50
19363;DHT22;9817;50.80926400;5.16316200;2022-07-29T08:24:29;43.50;54.80
19363;DHT22;9817;50.80926400;5.16316200;2022-07-29T08:27:18;43.60;53.60
19363;DHT22;9817;50.80926400;5.16316200;2022-07-29T08:29:44;44.00;52.80
19363;DHT22;9817;50.80926400;5.16316200;2022-07-29T08:32:10;44.40;51.90
19363;DHT22;9817;50.80926400;5.16316200;2022-07-29T08:34:35;44.20;51.00
19363;DHT22;9817;50.80926400;5.16316200;2022-07-29T08:37:01;44.40;49.60
19363;DHT22;9817;50.80926400;5.16316200;2022-07-29T08:39:27;44.60;49.30
19363;DHT22;9817;50.80926400;5.16316200;2022-07-29T08:41:52;44.70;48.80
19363;DHT22;9817;50.80926400;5.16316200;2022-07-29T08:44:19;44.90;50.50
19363;DHT22;9817;50.80926400;5.16316200;2022-07-29T08:46:45;44.80;49.70
19363;DHT22;9817;50.80926400;5.16316200;2022-07-29T08:49:10;44.80;48.50
19363;DHT22;9817;50.80926400;5.16316200;2022-07-29T08:51:39;45.10;48.50
19363;DHT22;9817;50.80926400;5.16316200;2022-07-29T08:54:05;45.10;48.50
19363;DHT22;9817;50.80926400;5.16316200;2022-07-29T08:56:32;45.00;48.50
19363;DHT22;9817;50.80926400;5.16316200;2022-07-29T08:58:59;45.10;48.60
19363;DHT22;9817;50.80926400;5.16316200;2022-07-29T09:01:27;45.00;47.80
19363;DHT22;9817;50.80926400;5.16316200;2022-07-29T09:03:57;45.10;47.70
19363;DHT22;9817;50.80926400;5.16316200;2022-07-29T09:06:24;45.30;47.70
19363;DHT22;9817;50.80926400;5.16316200;2022-07-29T09:08:54;45.60;47.40
19363;DHT22;9817;50.80926400;5.16316200;2022-07-29T09:11:21;45.70;47.00
19363;DHT22;9817;50.80926400;5.16316200;2022-07-29T09:13:47;45.90;47.00
19363;DHT22;9817;50.80926400;5.16316200;2022-07-29T09:16:14;45.90;46.80
19363;DHT22;9817;50.80926400;5.16316200;2022-07-29T09:18:42;46.00;46.80
19363;DHT22;9817;50.80926400;5.16316200;2022-07-29T09:21:10;46.00;45.90
19363;DHT22;9817;50.80926400;5.16316200;2022-07-29T09:24:09;46.00;46.60
19363;DHT22;9817;50.80926400;5.16316200;2022-07-29T09:26:39;45.90;45.70
19363;DHT22;9817;50.80926400;5.16316200;2022-07-29T09:29:13;45.60;46.80
19363;DHT22;9817;50.80926400;5.16316200;2022-07-29T09:31:41;45.50;46.60
19363;DHT22;9817;50.80926400;5.16316200;2022-07-29T09:34:08;45.50;46.70
19363;DHT22;9817;50.80926400;5.16316200;2022-07-29T09:36:43;45.10;46.90
19363;DHT22;9817;50.80926400;5.16316200;2022-07-29T09:39:08;45.20;46.30
19363;DHT22;9817;50.80926400;5.16316200;2022-07-29T09:41:51;44.60;47.20
19363;DHT22;9817;50.80926400;5.16316200;2022-07-29T09:44:21;45.00;46.70
19363;DHT22;9817;50.80926400;5.16316200;2022-07-29T09:49:36;45.50;47.10
19363;DHT22;9817;50.80926400;5.16316200;2022-07-29T09:52:09;45.00;46.50
19363;DHT22;9817;50.80926400;5.16316200;2022-07-29T09:54:35;45.10;46.40
19363;DHT22;9817;50.80926400;5.16316200;2022-07-29T09:57:06;44.90;46.30
19363;DHT22;9817;50.80926400;5.16316200;2022-07-29T09:59:33;45.00;46.80
19363;DHT22;9817;50.80926400;5.16316200;2022-07-29T10:01:59;44.30;46.40
19363;DHT22;9817;50.80926400;5.16316200;2022-07-29T10:04:45;44.20;47.30
19363;DHT22;9817;50.80926400;5.16316200;2022-07-29T10:07:10;44.10;47.30
19363;DHT22;9817;50.80926400;5.16316200;2022-07-29T10:09:36;44.00;47.50
19363;DHT22;9817;50.80926400;5.16316200;2022-07-29T10:12:12;44.00;47.60
19363;DHT22;9817;50.80926400;5.16316200;2022-07-29T10:14:40;44.40;47.40
19363;DHT22;9817;50.80926400;5.16316200;2022-07-29T10:17:07;44.20;46.90
19363;DHT22;9817;50.80926400;5.16316200;2022-07-29T10:19:34;43.90;46.90
19363;DHT22;9817;50.80926400;5.16316200;2022-07-29T10:22:02;42.70;47.20
19363;DHT22;9817;50.80926400;5.16316200;2022-07-29T10:24:30;42.30;47.70
19363;DHT22;9817;50.80926400;5.16316200;2022-07-29T10:26:57;42.00;48.40
19363;DHT22;9817;50.80926400;5.16316200;2022-07-29T10:29:23;41.60;49.20
19363;DHT22;9817;50.80926400;5.16316200;2022-07-29T10:32:16;40.80;49.80
19363;DHT22;9817;50.80926400;5.16316200;2022-07-29T10:34:57;39.20;51.60
19363;DHT22;9817;50.80926400;5.16316200;2022-07-29T10:43:29;35.80;55.90
19363;DHT22;9817;50.80926400;5.16316200;2022-07-29T10:45:59;35.20;59.00
19363;DHT22;9817;50.80926400;5.16316200;2022-07-29T10:48:26;34.70;60.40
19363;DHT22;9817;50.80926400;5.16316200;2022-07-29T10:53:18;33.90;61.30
19363;DHT22;9817;50.80926400;5.16316200;2022-07-29T10:55:44;33.60;62.80
19363;DHT22;9817;50.80926400;5.16316200;2022-07-29T10:58:20;33.30;63.90
19363;DHT22;9817;50.80926400;5.16316200;2022-07-29T11:00:51;33.30;62.90
19363;DHT22;9817;50.80926400;5.16316200;2022-07-29T11:06:06;32.90;64.80
19363;DHT22;9817;50.80926400;5.16316200;2022-07-29T11:08:32;32.60;63.70
19363;DHT22;9817;50.80926400;5.16316200;2022-07-29T11:11:33;32.30;65.20
19363;DHT22;9817;50.80926400;5.16316200;2022-07-29T11:13:58;32.20;66.80
19363;DHT22;9817;50.80926400;5.16316200;2022-07-29T11:16:24;31.90;66.40
19363;DHT22;9817;50.80926400;5.16316200;2022-07-29T11:21:43;31.40;69.70
19363;DHT22;9817;50.80926400;5.16316200;2022-07-29T11:24:29;31.20;68.90
19363;DHT22;9817;50.80926400;5.16316200;2022-07-29T11:32:15;31.40;70.30
19363;DHT22;9817;50.80926400;5.16316200;2022-07-29T11:34:44;31.50;71.10
19363;DHT22;9817;50.80926400;5.16316200;2022-07-29T11:47:32;31.50;67.30
19363;DHT22;9817;50.80926400;5.16316200;2022-07-29T11:50:00;31.40;69.40
19363;DHT22;9817;50.80926400;5.16316200;2022-07-29T11:52:42;31.40;69.80
19363;DHT22;9817;50.80926400;5.16316200;2022-07-29T11:55:12;31.10;72.50
19363;DHT22;9817;50.80926400;5.16316200;2022-07-29T11:57:48;31.10;73.30
19363;DHT22;9817;50.80926400;5.16316200;2022-07-29T12:02:59;31.20;70.80
19363;DHT22;9817;50.80926400;5.16316200;2022-07-29T12:08:26;31.40;71.00
19363;DHT22;9817;50.80926400;5.16316200;2022-07-29T12:10:52;31.50;71.70
19363;DHT22;9817;50.80926400;5.16316200;2022-07-29T12:13:20;31.60;69.80
19363;DHT22;9817;50.80926400;5.16316200;2022-07-29T12:15:56;31.70;68.50
19363;DHT22;9817;50.80926400;5.16316200;2022-07-29T12:18:22;31.60;66.90
19363;DHT22;9817;50.80926400;5.16316200;2022-07-29T12:20:49;31.80;66.30
19363;DHT22;9817;50.80926400;5.16316200;2022-07-29T12:23:21;31.60;69.80
19363;DHT22;9817;50.80926400;5.16316200;2022-07-29T12:25:47;31.60;69.90
19363;DHT22;9817;50.80926400;5.16316200;2022-07-29T12:28:13;31.70;66.30
19363;DHT22;9817;50.80926400;5.16316200;2022-07-29T12:30:48;31.60;66.50
19363;DHT22;9817;50.80926400;5.16316200;2022-07-29T12:33:18;31.60;67.60
19363;DHT22;9817;50.80926400;5.16316200;2022-07-29T12:35:47;31.60;67.30
19363;DHT22;9817;50.80926400;5.16316200;2022-07-29T12:38:14;31.50;67.80
19363;DHT22;9817;50.80926400;5.16316200;2022-07-29T12:40:40;31.60;68.20
19363;DHT22;9817;50.80926400;5.16316200;2022-07-29T12:43:20;31.80;69.20
19363;DHT22;9817;50.80926400;5.16316200;2022-07-29T12:45:52;31.80;68.00
19363;DHT22;9817;50.80926400;5.16316200;2022-07-29T12:48:33;31.70;69.40
19363;DHT22;9817;50.80926400;5.16316200;2022-07-29T12:51:00;31.80;67.40
19363;DHT22;9817;50.80926400;5.16316200;2022-07-29T12:53:27;31.70;69.00
19363;DHT22;9817;50.80926400;5.16316200;2022-07-29T12:55:55;31.60;68.10
19363;DHT22;9817;50.80926400;5.16316200;2022-07-29T12:58:39;31.70;68.20
19363;DHT22;9817;50.80926400;5.16316200;2022-07-29T13:01:14;31.40;66.70
19363;DHT22;9817;50.80926400;5.16316200;2022-07-29T13:03:52;31.00;67.60
19363;DHT22;9817;50.80926400;5.16316200;2022-07-29T13:06:41;30.80;67.70
19363;DHT22;9817;50.80926400;5.16316200;2022-07-29T13:09:12;31.00;68.60
19363;DHT22;9817;50.80926400;5.16316200;2022-07-29T13:11:50;30.80;70.40
19363;DHT22;9817;50.80926400;5.16316200;2022-07-29T13:14:48;30.70;69.30
19363;DHT22;9817;50.80926400;5.16316200;2022-07-29T13:17:19;31.00;71.10
19363;DHT22;9817;50.80926400;5.16316200;2022-07-29T13:19:50;31.10;70.30
19363;DHT22;9817;50.80926400;5.16316200;2022-07-29T13:22:21;31.20;66.90
19363;DHT22;9817;50.80926400;5.16316200;2022-07-29T13:24:54;31.10;67.60
19363;DHT22;9817;50.80926400;5.16316200;2022-07-29T13:27:25;31.00;69.30
19363;DHT22;9817;50.80926400;5.16316200;2022-07-29T13:29:52;30.90;67.40
19363;DHT22;9817;50.80926400;5.16316200;2022-07-29T13:32:19;31.00;66.80
19363;DHT22;9817;50.80926400;5.16316200;2022-07-29T13:34:45;31.40;69.90
19363;DHT22;9817;50.80926400;5.16316200;2022-07-29T13:37:11;31.50;68.00
19363;DHT22;9817;50.80926400;5.16316200;2022-07-29T13:39:37;31.10;67.70
19363;DHT22;9817;50.80926400;5.16316200;2022-07-29T13:42:03;30.80;67.30
19363;DHT22;9817;50.80926400;5.16316200;2022-07-29T13:44:29;30.20;66.60
19363;DHT22;9817;50.80926400;5.16316200;2022-07-29T13:46:55;29.80;67.30
19363;DHT22;9817;50.80926400;5.16316200;2022-07-29T13:49:21;29.80;70.00
19363;DHT22;9817;50.80926400;5.16316200;2022-07-29T13:51:48;29.80;71.70
19363;DHT22;9817;50.80926400;5.16316200;2022-07-29T13:54:14;29.90;70.10
19363;DHT22;9817;50.80926400;5.16316200;2022-07-29T13:56:39;29.80;71.60
19363;DHT22;9817;50.80926400;5.16316200;2022-07-29T13:59:05;29.80;70.90
19363;DHT22;9817;50.80926400;5.16316200;2022-07-29T14:01:31;30.00;70.40
19363;DHT22;9817;50.80926400;5.16316200;2022-07-29T14:03:57;30.10;70.20
19363;DHT22;9817;50.80926400;5.16316200;2022-07-29T14:06:22;30.20;68.90
19363;DHT22;9817;50.80926400;5.16316200;2022-07-29T14:08:48;30.60;72.50
19363;DHT22;9817;50.80926400;5.16316200;2022-07-29T14:11:13;30.80;69.80
19363;DHT22;9817;50.80926400;5.16316200;2022-07-29T14:13:39;31.10;66.70
19363;DHT22;9817;50.80926400;5.16316200;2022-07-29T14:16:05;31.10;67.50
19363;DHT22;9817;50.80926400;5.16316200;2022-07-29T14:18:32;31.10;67.50
19363;DHT22;9817;50.80926400;5.16316200;2022-07-29T14:20:58;30.80;66.00
19363;DHT22;9817;50.80926400;5.16316200;2022-07-29T14:23:23;30.50;66.50
19363;DHT22;9817;50.80926400;5.16316200;2022-07-29T14:25:49;30.10;68.70
19363;DHT22;9817;50.80926400;5.16316200;2022-07-29T14:28:15;29.80;67.80
19363;DHT22;9817;50.80926400;5.16316200;2022-07-29T14:30:40;29.70;67.60